Frederic, Michigan
Current Conditions -  °F | °C
As of 2:35 AM on Sunday 23 Nov 2014 (Local Time) from KGOV Reporting Station
Moderate Fog Moderate Fog  
Wind Chill: 37°   Ceiling: 200
Heat Index: 37°   Visibility: 0.25mi
Dew Point: 37°   Wind: 3mph
Humidity: 100%   Direction: 100°E
Pressure: 29.82"   Gusts: NA
Location:  44.78°N, 84.75°W
Report Text: KGOV 230735Z AUTO 10003KT 1/4SM FG OVC002 03/03 A2982 RMK AO2 T00290029
Loading
Personal Weather Stations






























Interactive Weather Map New forecast layout! Learn more

10-Day Weather Forecast

Advertisements
Track Severe Weather on mobile